Edmonton Namao Alta., Canada
Current Conditions -  °F | °C
As of 2:00 AM on Wednesday 26 Nov 2014 (Local Time) from CYXD Reporting Station
Overcast Overcast  
Wind Chill:   Ceiling: 2100
Heat Index: 14°   Visibility: 9mi
Dew Point: 10°   Wind: 7mph
Humidity: 86%   Direction: 80°E
Pressure: 30.18"   Gusts: NA
Location:  53.61°N, 113.46°W
Report Text: CYXD 260900Z AUTO 08006KT 9SM BKN021 BKN045 BKN050 OVC095 M10/M12 A3018 RMK SLP267
Loading
Personal Weather Stations






























Interactive Weather Map New forecast layout! Learn more

10-Day Weather Forecast

Advertisements
Track Severe Weather on mobile